sensor_id;sensor_type;location;lat;lon;timestamp;pressure;altitude;pressure_sealevel;temperature;humidity
9229;BME280;4649;42.644;23.284;2023-04-22T00:02:06;92666.84;;;8.00;88.49
9229;BME280;4649;42.644;23.284;2023-04-22T02:23:08;92543.22;;;7.38;94.48
9229;BME280;4649;42.644;23.284;2023-04-22T02:26:35;92630.56;;;7.90;96.02
9229;BME280;4649;42.644;23.284;2023-04-22T02:47:31;92654.28;;;7.81;97.69
9229;BME280;4649;42.644;23.284;2023-04-22T02:50:53;92588.47;;;7.34;97.57
9229;BME280;4649;42.644;23.284;2023-04-22T03:12:53;92764.16;;;8.60;97.55
9229;BME280;4649;42.644;23.284;2023-04-22T03:16:06;92695.91;;;8.27;96.60
9229;BME280;4649;42.644;23.284;2023-04-22T04:23:06;92598.59;;;9.50;84.71
9229;BME280;4649;42.644;23.284;2023-04-22T04:37:09;92675.34;;;12.73;72.52
9229;BME280;4649;42.644;23.284;2023-04-22T04:39:39;92818.44;;;14.68;66.46
9229;BME280;4649;42.644;23.284;2023-04-22T04:42:06;92814.28;;;15.65;61.44
9229;BME280;4649;42.644;23.284;2023-04-22T04:44:34;92681.25;;;15.38;57.09
9229;BME280;4649;42.644;23.284;2023-04-22T04:47:01;92756.34;;;16.53;55.16
9229;BME280;4649;42.644;23.284;2023-04-22T04:49:29;92699.72;;;16.61;51.87
9229;BME280;4649;42.644;23.284;2023-04-22T04:51:56;92714.06;;;16.82;52.31
9229;BME280;4649;42.644;23.284;2023-04-22T04:54:29;92663.19;;;16.44;53.53
9229;BME280;4649;42.644;23.284;2023-04-22T04:56:58;92828.13;;;18.52;50.28
9229;BME280;4649;42.644;23.284;2023-04-22T04:59:26;92769.63;;;18.72;46.08
9229;BME280;4649;42.644;23.284;2023-04-22T05:01:52;92843.59;;;19.47;46.29
9229;BME280;4649;42.644;23.284;2023-04-22T05:04:20;92815.16;;;19.66;45.73
9229;BME280;4649;42.644;23.284;2023-04-22T05:06:47;92831.53;;;21.08;41.52
9229;BME280;4649;42.644;23.284;2023-04-22T05:09:14;92745.91;;;20.87;40.30
9229;BME280;4649;42.644;23.284;2023-04-22T05:11:41;92822.66;;;21.34;40.60
9229;BME280;4649;42.644;23.284;2023-04-22T05:14:09;92815.47;;;22.06;39.74
9229;BME280;4649;42.644;23.284;2023-04-22T05:16:36;92837.81;;;23.25;35.56
9229;BME280;4649;42.644;23.284;2023-04-22T05:19:02;92788.09;;;22.70;35.66
9229;BME280;4649;42.644;23.284;2023-04-22T05:21:29;92749.31;;;22.06;37.42
9229;BME280;4649;42.644;23.284;2023-04-22T05:23:56;92714.00;;;21.35;37.83
9229;BME280;4649;42.644;23.284;2023-04-22T05:26:23;92819.81;;;22.09;35.98
9229;BME280;4649;42.644;23.284;2023-04-22T05:28:50;92842.94;;;22.13;36.95
9229;BME280;4649;42.644;23.284;2023-04-22T05:31:18;92843.09;;;21.99;37.24
9229;BME280;4649;42.644;23.284;2023-04-22T05:33:45;92782.28;;;21.70;37.75
9229;BME280;4649;42.644;23.284;2023-04-22T05:36:13;92846.41;;;22.14;37.62
9229;BME280;4649;42.644;23.284;2023-04-22T05:38:40;92845.00;;;23.01;35.50
9229;BME280;4649;42.644;23.284;2023-04-22T05:41:06;92847.09;;;22.84;35.20
9229;BME280;4649;42.644;23.284;2023-04-22T05:43:33;92814.75;;;22.32;36.42
9229;BME280;4649;42.644;23.284;2023-04-22T05:46:00;92855.28;;;22.65;37.08
9229;BME280;4649;42.644;23.284;2023-04-22T05:48:28;92831.75;;;22.64;35.20
9229;BME280;4649;42.644;23.284;2023-04-22T05:50:55;92849.28;;;23.12;38.04
9229;BME280;4649;42.644;23.284;2023-04-22T05:53:23;92746.16;;;22.90;36.22
9229;BME280;4649;42.644;23.284;2023-04-22T05:55:50;92849.28;;;24.04;35.21
9229;BME280;4649;42.644;23.284;2023-04-22T05:58:16;92849.13;;;24.49;34.37
9229;BME280;4649;42.644;23.284;2023-04-22T06:00:43;92773.53;;;24.47;33.09
9229;BME280;4649;42.644;23.284;2023-04-22T06:03:10;92788.03;;;25.26;30.21
9229;BME280;4649;42.644;23.284;2023-04-22T06:05:38;92814.22;;;26.18;30.31
9229;BME280;4649;42.644;23.284;2023-04-22T06:08:05;92756.31;;;25.81;29.89
9229;BME280;4649;42.644;23.284;2023-04-22T06:10:32;92853.91;;;26.21;30.22
9229;BME280;4649;42.644;23.284;2023-04-22T06:12:59;92845.63;;;26.00;31.75
9229;BME280;4649;42.644;23.284;2023-04-22T06:15:26;92785.28;;;26.65;29.08
9229;BME280;4649;42.644;23.284;2023-04-22T06:17:53;92737.88;;;26.17;29.16
9229;BME280;4649;42.644;23.284;2023-04-22T06:20:19;92757.59;;;26.00;29.76
9229;BME280;4649;42.644;23.284;2023-04-22T06:22:48;92846.88;;;26.73;29.03
9229;BME280;4649;42.644;23.284;2023-04-22T06:25:15;92763.91;;;26.56;27.69
9229;BME280;4649;42.644;23.284;2023-04-22T06:27:42;92760.66;;;25.42;30.04
9229;BME280;4649;42.644;23.284;2023-04-22T06:30:09;92841.03;;;26.25;29.47
9229;BME280;4649;42.644;23.284;2023-04-22T06:32:36;92721.97;;;25.65;28.60
9229;BME280;4649;42.644;23.284;2023-04-22T06:35:04;92850.78;;;26.15;29.45
9229;BME280;4649;42.644;23.284;2023-04-22T06:37:31;92849.75;;;25.69;30.00
9229;BME280;4649;42.644;23.284;2023-04-22T06:39:59;92818.88;;;26.92;28.49
9229;BME280;4649;42.644;23.284;2023-04-22T06:42:26;92834.75;;;27.35;27.35
9229;BME280;4649;42.644;23.284;2023-04-22T06:44:53;92852.53;;;27.18;27.45
9229;BME280;4649;42.644;23.284;2023-04-22T06:47:20;92857.47;;;26.33;29.11
9229;BME280;4649;42.644;23.284;2023-04-22T06:49:47;92855.53;;;26.56;28.28
9229;BME280;4649;42.644;23.284;2023-04-22T06:52:14;92857.66;;;25.72;29.09
9229;BME280;4649;42.644;23.284;2023-04-22T06:54:41;92839.06;;;25.54;30.02
9229;BME280;4649;42.644;23.284;2023-04-22T06:57:09;92861.38;;;25.56;30.09
9229;BME280;4649;42.644;23.284;2023-04-22T06:59:36;92861.81;;;25.82;29.12
9229;BME280;4649;42.644;23.284;2023-04-22T07:02:03;92769.38;;;25.48;28.15
9229;BME280;4649;42.644;23.284;2023-04-22T07:04:30;92870.78;;;26.34;28.15
9229;BME280;4649;42.644;23.284;2023-04-22T07:06:57;92858.22;;;26.77;27.75
9229;BME280;4649;42.644;23.284;2023-04-22T07:09:23;92862.81;;;25.36;30.75
9229;BME280;4649;42.644;23.284;2023-04-22T07:11:50;92782.75;;;25.10;29.43
9229;BME280;4649;42.644;23.284;2023-04-22T07:14:18;92780.72;;;25.31;29.65
9229;BME280;4649;42.644;23.284;2023-04-22T07:16:45;92864.22;;;24.57;31.05
9229;BME280;4649;42.644;23.284;2023-04-22T07:19:12;92836.16;;;24.42;30.37
9229;BME280;4649;42.644;23.284;2023-04-22T07:21:38;92812.50;;;24.69;31.12
9229;BME280;4649;42.644;23.284;2023-04-22T07:24:06;92864.56;;;24.92;30.35
9229;BME280;4649;42.644;23.284;2023-04-22T07:26:36;92795.00;;;23.80;31.05
9229;BME280;4649;42.644;23.284;2023-04-22T07:29:03;92878.66;;;23.81;32.72
9229;BME280;4649;42.644;23.284;2023-04-22T07:31:32;92872.56;;;24.20;32.19
9229;BME280;4649;42.644;23.284;2023-04-22T07:33:58;92894.38;;;23.88;32.15
9229;BME280;4649;42.644;23.284;2023-04-22T07:36:25;92796.59;;;23.55;32.10
9229;BME280;4649;42.644;23.284;2023-04-22T07:38:52;92880.56;;;23.78;31.11
9229;BME280;4649;42.644;23.284;2023-04-22T07:41:19;92851.47;;;22.87;33.35
9229;BME280;4649;42.644;23.284;2023-04-22T07:43:45;92883.72;;;22.84;33.46
9229;BME280;4649;42.644;23.284;2023-04-22T07:46:12;92885.31;;;23.14;33.58
9229;BME280;4649;42.644;23.284;2023-04-22T07:48:41;92777.19;;;23.27;33.76
9229;BME280;4649;42.644;23.284;2023-04-22T07:51:08;92858.69;;;24.57;31.61
9229;BME280;4649;42.644;23.284;2023-04-22T07:53:34;92859.50;;;25.28;30.06
9229;BME280;4649;42.644;23.284;2023-04-22T07:56:02;92871.41;;;25.70;30.22
9229;BME280;4649;42.644;23.284;2023-04-22T07:58:28;92868.25;;;25.55;29.57
9229;BME280;4649;42.644;23.284;2023-04-22T08:00:55;92871.34;;;24.70;30.12
9229;BME280;4649;42.644;23.284;2023-04-22T08:03:22;92846.66;;;23.96;30.81
9229;BME280;4649;42.644;23.284;2023-04-22T08:05:50;92863.81;;;24.23;30.98
9229;BME280;4649;42.644;23.284;2023-04-22T08:08:17;92759.06;;;23.61;31.90
9229;BME280;4649;42.644;23.284;2023-04-22T08:10:44;92858.59;;;24.86;30.27
9229;BME280;4649;42.644;23.284;2023-04-22T08:13:10;92836.34;;;23.97;31.15
9229;BME280;4649;42.644;23.284;2023-04-22T08:15:37;92793.31;;;23.11;31.91
9229;BME280;4649;42.644;23.284;2023-04-22T08:18:04;92786.00;;;22.97;32.03
9229;BME280;4649;42.644;23.284;2023-04-22T08:20:31;92872.50;;;23.09;33.26
9229;BME280;4649;42.644;23.284;2023-04-22T08:22:59;92871.25;;;23.83;32.04
9229;BME280;4649;42.644;23.284;2023-04-22T08:25:26;92867.31;;;24.33;31.14
9229;BME280;4649;42.644;23.284;2023-04-22T08:27:53;92738.22;;;23.98;30.19
9229;BME280;4649;42.644;23.284;2023-04-22T08:30:19;92791.97;;;23.86;31.30
9229;BME280;4649;42.644;23.284;2023-04-22T08:32:46;92787.88;;;23.96;30.47
9229;BME280;4649;42.644;23.284;2023-04-22T08:35:13;92774.97;;;23.06;30.59
9229;BME280;4649;42.644;23.284;2023-04-22T08:37:40;92857.81;;;22.27;33.26
9229;BME280;4649;42.644;23.284;2023-04-22T08:40:09;92848.84;;;22.27;34.11
9229;BME280;4649;42.644;23.284;2023-04-22T08:42:36;92847.59;;;22.37;33.99
9229;BME280;4649;42.644;23.284;2023-04-22T08:45:05;92772.63;;;21.28;35.06
9229;BME280;4649;42.644;23.284;2023-04-22T08:47:34;92845.84;;;21.31;35.56
9229;BME280;4649;42.644;23.284;2023-04-22T08:50:03;92844.50;;;21.56;35.72
9229;BME280;4649;42.644;23.284;2023-04-22T08:52:32;92846.22;;;22.55;35.05
9229;BME280;4649;42.644;23.284;2023-04-22T08:54:58;92831.75;;;22.64;33.83
9229;BME280;4649;42.644;23.284;2023-04-22T08:57:27;92806.66;;;22.17;33.03
9229;BME280;4649;42.644;23.284;2023-04-22T08:59:55;92795.81;;;22.45;34.48
9229;BME280;4649;42.644;23.284;2023-04-22T09:02:25;92832.22;;;23.60;32.17
9229;BME280;4649;42.644;23.284;2023-04-22T09:04:52;92742.34;;;22.76;32.38
9229;BME280;4649;42.644;23.284;2023-04-22T09:07:21;92763.56;;;22.83;30.71
9229;BME280;4649;42.644;23.284;2023-04-22T09:09:49;92822.97;;;23.11;32.95
9229;BME280;4649;42.644;23.284;2023-04-22T09:12:16;92708.16;;;22.17;32.93
9229;BME280;4649;42.644;23.284;2023-04-22T09:14:44;92772.41;;;22.37;32.54
9229;BME280;4649;42.644;23.284;2023-04-22T09:17:14;92768.84;;;22.53;33.30
9229;BME280;4649;42.644;23.284;2023-04-22T09:19:41;92823.75;;;23.58;31.18
9229;BME280;4649;42.644;23.284;2023-04-22T09:22:09;92769.34;;;23.14;30.98
9229;BME280;4649;42.644;23.284;2023-04-22T09:24:41;92744.22;;;22.74;31.27
9229;BME280;4649;42.644;23.284;2023-04-22T09:27:09;92821.09;;;22.87;32.70
9229;BME280;4649;42.644;23.284;2023-04-22T09:29:36;92685.66;;;21.59;33.40
9229;BME280;4649;42.644;23.284;2023-04-22T09:32:09;92760.19;;;22.30;32.91
9229;BME280;4649;42.644;23.284;2023-04-22T09:34:47;92810.28;;;22.36;33.31
9229;BME280;4649;42.644;23.284;2023-04-22T09:37:17;92745.06;;;21.79;32.89
9229;BME280;4649;42.644;23.284;2023-04-22T09:39:47;92780.06;;;21.86;33.09
9229;BME280;4649;42.644;23.284;2023-04-22T09:42:14;92785.59;;;20.77;33.92
9229;BME280;4649;42.644;23.284;2023-04-22T09:44:41;92801.56;;;20.71;34.88
9229;BME280;4649;42.644;23.284;2023-04-22T09:47:09;92800.44;;;20.98;32.94
9229;BME280;4649;42.644;23.284;2023-04-22T09:49:36;92747.84;;;20.70;34.12
9229;BME280;4649;42.644;23.284;2023-04-22T09:52:04;92731.31;;;21.11;32.64
9229;BME280;4649;42.644;23.284;2023-04-22T09:54:31;92802.88;;;21.96;30.88
9229;BME280;4649;42.644;23.284;2023-04-22T09:56:58;92798.16;;;22.05;29.70
9229;BME280;4649;42.644;23.284;2023-04-22T09:59:27;92801.13;;;21.74;31.39
9229;BME280;4649;42.644;23.284;2023-04-22T10:01:57;92729.94;;;21.53;29.63
9229;BME280;4649;42.644;23.284;2023-04-22T10:04:26;92798.16;;;22.22;29.21
9229;BME280;4649;42.644;23.284;2023-04-22T10:06:53;92756.19;;;21.98;31.02
9229;BME280;4649;42.644;23.284;2023-04-22T10:09:21;92757.66;;;21.55;30.21
9229;BME280;4649;42.644;23.284;2023-04-22T10:11:50;92667.66;;;20.57;30.20
9229;BME280;4649;42.644;23.284;2023-04-22T10:14:18;92772.63;;;21.62;29.48
9229;BME280;4649;42.644;23.284;2023-04-22T10:16:46;92777.50;;;21.54;33.09
9229;BME280;4649;42.644;23.284;2023-04-22T10:19:16;92727.03;;;20.84;34.56
9229;BME280;4649;42.644;23.284;2023-04-22T10:21:45;92784.16;;;20.93;33.79
9229;BME280;4649;42.644;23.284;2023-04-22T10:24:17;92781.94;;;20.75;33.14
9229;BME280;4649;42.644;23.284;2023-04-22T10:26:48;92699.97;;;20.08;33.09
9229;BME280;4649;42.644;23.284;2023-04-22T10:29:16;92787.41;;;20.26;33.74
9229;BME280;4649;42.644;23.284;2023-04-22T10:31:44;92782.78;;;20.04;34.34
9229;BME280;4649;42.644;23.284;2023-04-22T10:34:17;92758.31;;;19.84;34.14
9229;BME280;4649;42.644;23.284;2023-04-22T10:36:58;92716.69;;;19.63;33.71
9229;BME280;4649;42.644;23.284;2023-04-22T10:39:27;92744.44;;;19.43;33.91
9229;BME280;4649;42.644;23.284;2023-04-22T10:42:11;92700.91;;;17.73;35.89
9229;BME280;4649;42.644;23.284;2023-04-22T10:44:49;92683.50;;;17.49;35.92
9229;BME280;4649;42.644;23.284;2023-04-22T10:47:26;92735.06;;;17.95;35.73
9229;BME280;4649;42.644;23.284;2023-04-22T10:50:13;92610.28;;;17.19;36.42
9229;BME280;4649;42.644;23.284;2023-04-22T10:52:45;92673.00;;;18.05;35.76
9229;BME280;4649;42.644;23.284;2023-04-22T10:55:13;92709.00;;;18.38;34.11
9229;BME280;4649;42.644;23.284;2023-04-22T10:57:41;92724.16;;;18.25;34.52
9229;BME280;4649;42.644;23.284;2023-04-22T11:00:28;92785.16;;;18.18;36.52
9229;BME280;4649;42.644;23.284;2023-04-22T11:03:11;92584.06;;;16.59;36.86
9229;BME280;4649;42.644;23.284;2023-04-22T11:05:39;92589.88;;;17.20;35.95
9229;BME280;4649;42.644;23.284;2023-04-22T11:08:12;92773.66;;;18.64;35.30
9229;BME280;4649;42.644;23.284;2023-04-22T11:10:42;92590.69;;;17.58;34.92
9229;BME280;4649;42.644;23.284;2023-04-22T11:13:11;92777.63;;;19.00;35.37
9229;BME280;4649;42.644;23.284;2023-04-22T11:15:41;92787.13;;;18.99;34.57
9229;BME280;4649;42.644;23.284;2023-04-22T11:18:16;92694.00;;;17.87;34.55
9229;BME280;4649;42.644;23.284;2023-04-22T11:20:44;92657.81;;;17.59;34.37
9229;BME280;4649;42.644;23.284;2023-04-22T11:23:19;92594.59;;;17.12;35.21
9229;BME280;4649;42.644;23.284;2023-04-22T11:25:53;92617.69;;;17.62;34.84
9229;BME280;4649;42.644;23.284;2023-04-22T11:28:20;92672.25;;;17.97;33.15
9229;BME280;4649;42.644;23.284;2023-04-22T11:30:49;92677.88;;;17.47;34.07
9229;BME280;4649;42.644;23.284;2023-04-22T11:33:18;92673.47;;;17.36;34.23
9229;BME280;4649;42.644;23.284;2023-04-22T11:35:48;92738.91;;;17.99;34.50
9229;BME280;4649;42.644;23.284;2023-04-22T11:38:17;92745.84;;;18.08;36.71
9229;BME280;4649;42.644;23.284;2023-04-22T11:40:44;92620.38;;;16.74;38.22
9229;BME280;4649;42.644;23.284;2023-04-22T11:43:11;92808.63;;;17.91;38.71
9229;BME280;4649;42.644;23.284;2023-04-22T11:45:38;92735.09;;;16.95;40.46
9229;BME280;4649;42.644;23.284;2023-04-22T11:48:11;92613.28;;;15.88;40.86
9229;BME280;4649;42.644;23.284;2023-04-22T11:50:39;92755.69;;;16.96;42.10
9229;BME280;4649;42.644;23.284;2023-04-22T11:56:49;92838.75;;;16.93;42.86
9229;BME280;4649;42.644;23.284;2023-04-22T12:05:00;92842.09;;;16.30;43.49
9229;BME280;4649;42.644;23.284;2023-04-22T12:08:20;92860.75;;;16.39;46.00
9229;BME280;4649;42.644;23.284;2023-04-22T12:11:08;92845.56;;;16.31;44.63
9229;BME280;4649;42.644;23.284;2023-04-22T12:13:53;92654.88;;;14.87;45.61
9229;BME280;4649;42.644;23.284;2023-04-22T12:17:03;92728.47;;;15.33;46.59
9229;BME280;4649;42.644;23.284;2023-04-22T12:19:53;92779.44;;;15.71;47.21
9229;BME280;4649;42.644;23.284;2023-04-22T12:22:32;92851.56;;;16.16;47.32
9229;BME280;4649;42.644;23.284;2023-04-22T12:25:09;92823.44;;;15.88;46.25
9229;BME280;4649;42.644;23.284;2023-04-22T12:28:13;92637.94;;;14.68;48.49
9229;BME280;4649;42.644;23.284;2023-04-22T12:33:39;92665.28;;;15.09;47.07
9229;BME280;4649;42.644;23.284;2023-04-22T12:36:06;92811.34;;;15.96;47.24
9229;BME280;4649;42.644;23.284;2023-04-22T12:42:07;92718.75;;;15.45;47.12
9229;BME280;4649;42.644;23.284;2023-04-22T12:44:35;92748.47;;;15.69;47.74
9229;BME280;4649;42.644;23.284;2023-04-22T12:47:02;92769.25;;;16.12;46.26
9229;BME280;4649;42.644;23.284;2023-04-22T12:49:37;92825.91;;;16.32;47.15
9229;BME280;4649;42.644;23.284;2023-04-22T12:52:13;92798.22;;;15.95;45.55
9229;BME280;4649;42.644;23.284;2023-04-22T12:54:56;92832.28;;;16.14;45.87
9229;BME280;4649;42.644;23.284;2023-04-22T12:57:25;92680.16;;;15.21;45.39
9229;BME280;4649;42.644;23.284;2023-04-22T12:59:56;92762.00;;;15.94;47.04
9229;BME280;4649;42.644;23.284;2023-04-22T13:02:24;92753.41;;;15.90;47.96
9229;BME280;4649;42.644;23.284;2023-04-22T13:04:52;92821.16;;;16.33;49.73
9229;BME280;4649;42.644;23.284;2023-04-22T13:07:20;92643.63;;;15.57;47.96
9229;BME280;4649;42.644;23.284;2023-04-22T13:09:47;92663.91;;;15.69;48.52
9229;BME280;4649;42.644;23.284;2023-04-22T13:12:13;92824.31;;;16.85;47.80
9229;BME280;4649;42.644;23.284;2023-04-22T13:14:41;92790.69;;;16.69;46.08
9229;BME280;4649;42.644;23.284;2023-04-22T13:17:08;92770.38;;;16.57;44.80
9229;BME280;4649;42.644;23.284;2023-04-22T13:19:35;92784.63;;;16.63;44.60
9229;BME280;4649;42.644;23.284;2023-04-22T13:22:03;92819.38;;;16.83;44.95
9229;BME280;4649;42.644;23.284;2023-04-22T13:24:30;92740.97;;;16.02;44.41
9229;BME280;4649;42.644;23.284;2023-04-22T13:26:57;92662.75;;;15.44;45.36
9229;BME280;4649;42.644;23.284;2023-04-22T13:29:25;92770.78;;;16.21;45.56
9229;BME280;4649;42.644;23.284;2023-04-22T13:32:08;92762.50;;;16.26;45.05
9229;BME280;4649;42.644;23.284;2023-04-22T13:34:35;92829.28;;;16.66;43.65
9229;BME280;4649;42.644;23.284;2023-04-22T13:37:03;92792.56;;;16.54;43.37
9229;BME280;4649;42.644;23.284;2023-04-22T13:39:30;92716.06;;;16.06;43.53
9229;BME280;4649;42.644;23.284;2023-04-22T13:41:58;92821.03;;;16.86;44.44
9229;BME280;4649;42.644;23.284;2023-04-22T13:44:25;92691.69;;;16.08;41.79
9229;BME280;4649;42.644;23.284;2023-04-22T13:46:52;92757.28;;;16.56;42.43
9229;BME280;4649;42.644;23.284;2023-04-22T13:49:19;92766.88;;;16.77;41.33
9229;BME280;4649;42.644;23.284;2023-04-22T13:51:47;92647.97;;;16.00;39.60
9229;BME280;4649;42.644;23.284;2023-04-22T13:54:15;92819.53;;;17.33;40.20
9229;BME280;4649;42.644;23.284;2023-04-22T13:56:42;92713.56;;;16.56;39.43
9229;BME280;4649;42.644;23.284;2023-04-22T13:59:09;92825.63;;;17.19;39.36
9229;BME280;4649;42.644;23.284;2023-04-22T14:01:36;92754.00;;;16.93;39.58
9229;BME280;4649;42.644;23.284;2023-04-22T14:04:03;92726.13;;;16.87;38.34
9229;BME280;4649;42.644;23.284;2023-04-22T14:06:30;92714.00;;;16.75;39.58
9229;BME280;4649;42.644;23.284;2023-04-22T14:09:01;92827.09;;;17.55;38.63
9229;BME280;4649;42.644;23.284;2023-04-22T14:11:30;92810.00;;;17.62;39.32
9229;BME280;4649;42.644;23.284;2023-04-22T14:13:58;92652.03;;;16.62;39.22
9229;BME280;4649;42.644;23.284;2023-04-22T14:16:26;92739.34;;;17.10;37.81
9229;BME280;4649;42.644;23.284;2023-04-22T14:18:52;92710.38;;;16.80;38.40
9229;BME280;4649;42.644;23.284;2023-04-22T14:21:20;92744.69;;;15.92;40.66
9229;BME280;4649;42.644;23.284;2023-04-22T14:23:55;92749.06;;;14.31;43.79
9229;BME280;4649;42.644;23.284;2023-04-22T14:27:03;92613.59;;;13.41;46.44
9229;BME280;4649;42.644;23.284;2023-04-22T14:29:46;92642.56;;;13.83;46.43
9229;BME280;4649;42.644;23.284;2023-04-22T14:32:29;92811.00;;;15.67;44.96
9229;BME280;4649;42.644;23.284;2023-04-22T14:37:55;92695.28;;;15.42;42.37
9229;BME280;4649;42.644;23.284;2023-04-22T14:40:50;92598.00;;;14.11;44.68
9229;BME280;4649;42.644;23.284;2023-04-22T14:54:25;92806.94;;;15.93;42.96
9229;BME280;4649;42.644;23.284;2023-04-22T14:56:54;92619.63;;;14.56;43.03
9229;BME280;4649;42.644;23.284;2023-04-22T15:02:15;92615.25;;;14.01;43.71
9229;BME280;4649;42.644;23.284;2023-04-22T15:05:08;92664.47;;;14.42;43.42
9229;BME280;4649;42.644;23.284;2023-04-22T15:07:38;92811.75;;;15.34;44.27
9229;BME280;4649;42.644;23.284;2023-04-22T15:17:22;92807.97;;;14.72;47.95
9229;BME280;4649;42.644;23.284;2023-04-22T15:20:34;92620.91;;;14.03;43.95
9229;BME280;4649;42.644;23.284;2023-04-22T15:23:41;92618.28;;;14.36;43.33
9229;BME280;4649;42.644;23.284;2023-04-22T15:27:00;92806.63;;;15.64;42.98
9229;BME280;4649;42.644;23.284;2023-04-22T15:33:03;92601.84;;;13.90;43.54
9229;BME280;4649;42.644;23.284;2023-04-22T15:35:33;92684.94;;;14.81;43.68
9229;BME280;4649;42.644;23.284;2023-04-22T15:38:03;92674.03;;;14.94;46.65
9229;BME280;4649;42.644;23.284;2023-04-22T15:40:30;92813.47;;;16.11;48.11
9229;BME280;4649;42.644;23.284;2023-04-22T15:43:08;92671.22;;;14.87;49.03
9229;BME280;4649;42.644;23.284;2023-04-22T15:45:47;92829.03;;;15.83;49.75
9229;BME280;4649;42.644;23.284;2023-04-22T15:48:40;92732.88;;;15.23;50.87
9229;BME280;4649;42.644;23.284;2023-04-22T15:51:26;92830.25;;;15.94;49.81
9229;BME280;4649;42.644;23.284;2023-04-22T15:54:00;92814.78;;;15.97;50.13
9229;BME280;4649;42.644;23.284;2023-04-22T15:56:35;92646.91;;;14.76;50.02
9229;BME280;4649;42.644;23.284;2023-04-22T15:59:03;92825.25;;;16.06;49.67
9229;BME280;4649;42.644;23.284;2023-04-22T16:01:31;92607.66;;;14.59;49.28
9229;BME280;4649;42.644;23.284;2023-04-22T16:04:13;92613.09;;;14.59;49.13
9229;BME280;4649;42.644;23.284;2023-04-22T16:07:09;92603.84;;;14.28;49.23
9229;BME280;4649;42.644;23.284;2023-04-22T16:09:46;92642.06;;;14.49;48.29
9229;BME280;4649;42.644;23.284;2023-04-22T16:12:19;92644.78;;;14.36;47.81
9229;BME280;4649;42.644;23.284;2023-04-22T16:14:50;92838.72;;;15.71;47.92
9229;BME280;4649;42.644;23.284;2023-04-22T16:17:17;92754.47;;;15.08;48.04
9229;BME280;4649;42.644;23.284;2023-04-22T16:19:46;92663.63;;;14.34;48.65
9229;BME280;4649;42.644;23.284;2023-04-22T16:22:13;92764.44;;;15.06;48.77
9229;BME280;4649;42.644;23.284;2023-04-22T16:24:43;92716.19;;;14.67;48.24
9229;BME280;4649;42.644;23.284;2023-04-22T16:27:15;92766.03;;;15.01;47.60
9229;BME280;4649;42.644;23.284;2023-04-22T16:30:31;92658.59;;;14.12;49.32
9229;BME280;4649;42.644;23.284;2023-04-22T16:33:22;92840.25;;;15.20;48.72
9229;BME280;4649;42.644;23.284;2023-04-22T16:36:04;92744.81;;;14.04;50.25
9229;BME280;4649;42.644;23.284;2023-04-22T17:04:12;92880.16;;;13.67;63.44
9229;BME280;4649;42.644;23.284;2023-04-22T17:09:26;92891.78;;;13.67;64.73
9229;BME280;4649;42.644;23.284;2023-04-22T17:11:58;92805.63;;;13.02;65.77
9229;BME280;4649;42.644;23.284;2023-04-22T17:14:35;92893.63;;;13.17;69.05
9229;BME280;4649;42.644;23.284;2023-04-22T17:17:23;92714.69;;;12.24;68.77
9229;BME280;4649;42.644;23.284;2023-04-22T17:19:56;92900.13;;;13.33;71.65
9229;BME280;4649;42.644;23.284;2023-04-22T17:22:27;92715.78;;;12.16;71.59
9229;BME280;4649;42.644;23.284;2023-04-22T17:24:59;92698.53;;;11.89;72.64
9229;BME280;4649;42.644;23.284;2023-04-22T17:27:43;92912.28;;;13.26;72.98
9229;BME280;4649;42.644;23.284;2023-04-22T17:30:29;92777.16;;;12.42;73.05
9229;BME280;4649;42.644;23.284;2023-04-22T17:33:33;92708.81;;;11.72;73.39
9229;BME280;4649;42.644;23.284;2023-04-22T17:36:45;92703.94;;;11.65;73.75
9229;BME280;4649;42.644;23.284;2023-04-22T17:39:41;92853.81;;;12.54;73.95
9229;BME280;4649;42.644;23.284;2023-04-22T17:42:37;92718.78;;;11.59;74.05
9229;BME280;4649;42.644;23.284;2023-04-22T17:45:42;92923.38;;;12.80;74.57
9229;BME280;4649;42.644;23.284;2023-04-22T17:48:40;92837.59;;;11.84;74.27
9229;BME280;4649;42.644;23.284;2023-04-22T17:55:17;92945.81;;;12.22;75.53
9229;BME280;4649;42.644;23.284;2023-04-22T17:58:26;92734.44;;;10.51;76.79
9229;BME280;4649;42.644;23.284;2023-04-22T18:01:01;92949.50;;;11.85;78.27
9229;BME280;4649;42.644;23.284;2023-04-22T18:03:58;92835.13;;;10.95;79.50
9229;BME280;4649;42.644;23.284;2023-04-22T18:06:45;92956.22;;;11.73;80.88
9229;BME280;4649;42.644;23.284;2023-04-22T18:09:40;92875.13;;;11.24;81.96
9229;BME280;4649;42.644;23.284;2023-04-22T18:14:55;92948.94;;;11.46;84.02
9229;BME280;4649;42.644;23.284;2023-04-22T18:17:38;92802.53;;;10.60;83.67
9229;BME280;4649;42.644;23.284;2023-04-22T18:20:40;92765.28;;;10.15;83.81
9229;BME280;4649;42.644;23.284;2023-04-22T18:23:28;92971.78;;;11.67;83.95
9229;BME280;4649;42.644;23.284;2023-04-22T18:26:27;92779.78;;;10.12;85.35
9229;BME280;4649;42.644;23.284;2023-04-22T18:35:48;92904.28;;;11.01;81.72
9229;BME280;4649;42.644;23.284;2023-04-22T18:38:37;92975.53;;;11.53;81.20
9229;BME280;4649;42.644;23.284;2023-04-22T18:44:45;92934.28;;;11.14;79.79
9229;BME280;4649;42.644;23.284;2023-04-22T18:47:45;92884.91;;;10.70;77.85
9229;BME280;4649;42.644;23.284;2023-04-22T18:53:30;92987.88;;;11.38;77.69
9229;BME280;4649;42.644;23.284;2023-04-22T18:56:01;92908.00;;;10.88;77.25
9229;BME280;4649;42.644;23.284;2023-04-22T18:58:36;92882.25;;;10.54;77.58
9229;BME280;4649;42.644;23.284;2023-04-22T19:01:39;92994.81;;;11.33;77.20
9229;BME280;4649;42.644;23.284;2023-04-22T19:04:17;92997.25;;;11.31;76.83
9229;BME280;4649;42.644;23.284;2023-04-22T19:06:59;92855.22;;;10.32;76.59
9229;BME280;4649;42.644;23.284;2023-04-22T19:09:45;92869.47;;;10.49;76.47
9229;BME280;4649;42.644;23.284;2023-04-22T20:14:27;92887.97;;;9.05;93.98
9229;BME280;4649;42.644;23.284;2023-04-22T20:20:22;92781.25;;;8.35;93.97
9229;BME280;4649;42.644;23.284;2023-04-22T20:22:58;93008.53;;;9.71;96.34
9229;BME280;4649;42.644;23.284;2023-04-22T20:26:03;92865.25;;;8.75;94.50
9229;BME280;4649;42.644;23.284;2023-04-22T20:37:46;92801.84;;;8.38;94.06
9229;BME280;4649;42.644;23.284;2023-04-22T20:41:04;92799.13;;;8.33;95.50
9229;BME280;4649;42.644;23.284;2023-04-22T20:52:07;93002.75;;;10.11;94.04
9229;BME280;4649;42.644;23.284;2023-04-22T20:55:47;92804.03;;;9.03;92.06